createdAt,value
2018-09-06T00:01:44.897Z,19.80
2018-09-06T00:04:13.607Z,19.50
2018-09-06T00:06:42.406Z,19.40
2018-09-06T00:09:11.211Z,20.00
2018-09-06T00:11:39.954Z,19.10
2018-09-06T00:14:08.806Z,19.20
2018-09-06T00:16:37.464Z,18.00
2018-09-06T00:19:06.657Z,17.67
2018-09-06T00:21:35.458Z,19.67
2018-09-06T00:24:04.203Z,19.60
2018-09-06T00:26:32.859Z,20.63
2018-09-06T00:29:01.555Z,19.20
2018-09-06T00:31:30.685Z,21.30
2018-09-06T00:33:59.547Z,19.27
2018-09-06T00:36:28.190Z,20.17
2018-09-06T00:38:57.186Z,20.70
2018-09-06T00:41:25.835Z,19.77
2018-09-06T00:43:54.509Z,21.10
2018-09-06T00:46:23.220Z,18.90
2018-09-06T00:48:52.025Z,19.40
2018-09-06T00:51:21.125Z,19.40
2018-09-06T00:53:49.966Z,19.47
2018-09-06T00:56:18.650Z,19.40
2018-09-06T00:58:47.413Z,19.30
2018-09-06T01:01:16.073Z,19.00
2018-09-06T01:03:44.839Z,20.30
2018-09-06T01:06:13.486Z,19.60
2018-09-06T01:08:42.229Z,21.27
2018-09-06T01:11:11.085Z,19.87
2018-09-06T01:13:39.765Z,18.20
2018-09-06T01:16:09.341Z,18.20
2018-09-06T01:18:38.181Z,20.23
2018-09-06T01:21:07.465Z,18.93
2018-09-06T01:23:36.210Z,19.80
2018-09-06T01:26:04.937Z,19.10
2018-09-06T01:28:33.641Z,19.80
2018-09-06T01:31:02.418Z,18.23
2018-09-06T01:33:31.194Z,18.17
2018-09-06T01:36:04.989Z,18.00
2018-09-06T01:38:33.736Z,19.30
2018-09-06T01:41:02.482Z,19.00
2018-09-06T01:43:31.152Z,19.80
2018-09-06T01:46:00.034Z,19.80
2018-09-06T01:48:28.786Z,18.37
2018-09-06T01:50:57.901Z,20.23
2018-09-06T01:53:26.629Z,19.10
2018-09-06T01:55:55.269Z,19.63
2018-09-06T01:58:23.945Z,17.40
2018-09-06T02:00:52.590Z,19.93
2018-09-06T02:03:21.620Z,18.40
2018-09-06T02:05:50.294Z,18.30
2018-09-06T02:08:19.019Z,18.37
2018-09-06T02:10:47.769Z,19.87
2018-09-06T02:13:16.540Z,18.93
2018-09-06T02:15:45.305Z,18.63
2018-09-06T02:18:14.101Z,19.40
2018-09-06T02:20:42.754Z,19.27
2018-09-06T02:23:11.444Z,19.10
2018-09-06T02:25:40.235Z,20.40
2018-09-06T02:28:09.422Z,19.57
2018-09-06T02:30:38.260Z,20.57
2018-09-06T02:33:06.989Z,18.90
2018-09-06T02:35:35.810Z,19.70
2018-09-06T02:38:04.481Z,20.00
2018-09-06T02:40:40.109Z,19.53
2018-09-06T02:43:11.250Z,18.70
2018-09-06T02:45:40.972Z,18.87
2018-09-06T02:48:09.712Z,18.57
2018-09-06T02:50:43.861Z,20.57
2018-09-06T02:53:12.894Z,19.50
2018-09-06T02:55:41.997Z,19.53
2018-09-06T02:58:10.738Z,19.27
2018-09-06T03:00:39.897Z,21.87
2018-09-06T03:03:08.833Z,20.03
2018-09-06T03:05:37.552Z,20.97
2018-09-06T03:08:06.271Z,20.93
2018-09-06T03:10:43.070Z,21.10
2018-09-06T03:13:11.853Z,20.40
2018-09-06T03:15:41.224Z,20.17
2018-09-06T03:18:10.204Z,20.83
2018-09-06T03:20:39.051Z,20.47
2018-09-06T03:23:07.785Z,22.10
2018-09-06T03:25:36.499Z,19.60
2018-09-06T03:28:06.119Z,19.90
2018-09-06T03:30:35.043Z,21.40
2018-09-06T03:33:04.112Z,21.13
2018-09-06T03:35:32.805Z,20.63
2018-09-06T03:38:01.708Z,20.70
2018-09-06T03:40:30.700Z,20.53
2018-09-06T03:42:59.365Z,21.77
2018-09-06T03:45:28.106Z,20.30
2018-09-06T03:47:56.869Z,21.37
2018-09-06T03:50:25.563Z,18.70
2018-09-06T03:52:54.358Z,19.37
2018-09-06T03:55:23.765Z,20.90
2018-09-06T03:57:52.579Z,18.83
2018-09-06T04:00:21.463Z,20.07
2018-09-06T04:02:50.269Z,18.50
2018-09-06T04:05:19.330Z,19.20
2018-09-06T04:07:48.066Z,18.00
2018-09-06T04:10:16.803Z,17.73
2018-09-06T04:12:45.789Z,17.83
2018-09-06T04:15:14.579Z,18.83
2018-09-06T04:17:43.470Z,18.10
2018-09-06T04:20:12.126Z,18.00
2018-09-06T04:22:45.567Z,21.20
2018-09-06T04:25:14.433Z,19.37
2018-09-06T04:27:43.275Z,19.17
2018-09-06T04:30:12.212Z,16.20
2018-09-06T04:32:40.945Z,17.97
2018-09-06T04:35:10.009Z,18.60
2018-09-06T04:37:38.754Z,17.40
2018-09-06T04:40:07.861Z,18.27
2018-09-06T04:42:36.770Z,16.60
2018-09-06T04:45:05.960Z,17.77
2018-09-06T04:47:34.662Z,16.80
2018-09-06T04:50:03.434Z,16.63
2018-09-06T04:52:32.182Z,18.07
2018-09-06T04:55:00.918Z,16.87
2018-09-06T04:57:29.562Z,17.20
2018-09-06T04:59:58.301Z,16.87
2018-09-06T05:02:26.926Z,16.60
2018-09-06T05:04:55.679Z,17.00
2018-09-06T05:07:24.562Z,17.50
2018-09-06T05:09:53.260Z,18.40
2018-09-06T05:12:22.018Z,18.60
2018-09-06T05:14:50.846Z,19.70
2018-09-06T05:17:19.495Z,19.83
2018-09-06T05:19:48.229Z,17.70
2018-09-06T05:22:16.924Z,19.80
2018-09-06T05:24:45.881Z,17.67
2018-09-06T05:27:14.729Z,15.77
2018-09-06T05:29:43.421Z,16.13
2018-09-06T05:32:12.449Z,16.40
2018-09-06T05:34:41.281Z,16.13
2018-09-06T05:37:10.059Z,16.37
2018-09-06T05:39:38.842Z,16.83
2018-09-06T05:42:07.501Z,17.20
2018-09-06T05:44:36.431Z,18.30
2018-09-06T05:47:05.188Z,17.83
2018-09-06T05:49:34.014Z,17.70
2018-09-06T05:52:02.834Z,17.70
2018-09-06T05:54:31.746Z,18.93
2018-09-06T05:57:00.968Z,19.20
2018-09-06T05:59:29.640Z,18.70
2018-09-06T06:01:58.329Z,18.07
2018-09-06T06:04:27.013Z,18.80
2018-09-06T06:06:55.814Z,19.57
2018-09-06T06:09:24.614Z,18.90
2018-09-06T06:11:53.747Z,19.27
2018-09-06T06:14:22.587Z,19.53
2018-09-06T06:16:52.380Z,18.73
2018-09-06T06:19:21.155Z,20.40
2018-09-06T06:21:50.085Z,17.83
2018-09-06T06:24:18.790Z,17.87
2018-09-06T06:26:47.847Z,20.20
2018-09-06T06:29:16.622Z,19.57
2018-09-06T06:31:45.690Z,18.73
2018-09-06T06:34:14.515Z,20.53
2018-09-06T06:36:43.385Z,19.70
2018-09-06T06:39:13.654Z,18.93
2018-09-06T06:41:42.428Z,20.10
2018-09-06T06:44:11.729Z,20.53
2018-09-06T06:46:40.473Z,20.10
2018-09-06T06:49:09.136Z,22.90
2018-09-06T06:51:37.760Z,20.77
2018-09-06T06:54:06.741Z,23.20
2018-09-06T06:56:35.639Z,21.57
2018-09-06T06:59:04.722Z,17.57
2018-09-06T07:01:33.442Z,19.17
2018-09-06T07:04:02.415Z,21.70
2018-09-06T07:06:31.149Z,20.10
2018-09-06T07:09:00.007Z,21.67
2018-09-06T07:11:28.929Z,22.50
2018-09-06T07:13:57.805Z,20.07
2018-09-06T07:16:26.509Z,20.23
2018-09-06T07:18:55.506Z,22.70
2018-09-06T07:21:24.305Z,22.37
2018-09-06T07:23:53.191Z,21.83
2018-09-06T07:26:21.938Z,19.70
2018-09-06T07:28:50.714Z,21.00
2018-09-06T07:31:19.640Z,18.87
2018-09-06T07:33:48.424Z,19.00
2018-09-06T07:36:17.125Z,19.80
2018-09-06T07:38:45.825Z,19.10
2018-09-06T07:41:14.499Z,22.23
2018-09-06T07:43:43.175Z,18.80
2018-09-06T07:46:11.875Z,22.60
2018-09-06T07:48:41.065Z,15.90
2018-09-06T07:51:09.817Z,17.70
2018-09-06T07:53:38.755Z,20.70
2018-09-06T07:56:07.937Z,18.70
2018-09-06T07:58:36.742Z,17.57
2018-09-06T08:01:05.690Z,19.03
2018-09-06T08:03:34.445Z,18.00
2018-09-06T08:06:03.401Z,16.60
2018-09-06T08:08:32.324Z,18.50
2018-09-06T08:11:01.064Z,19.23
2018-09-06T08:13:30.613Z,19.83
2018-09-06T08:15:59.355Z,17.90
2018-09-06T08:18:28.045Z,18.60
2018-09-06T08:20:56.773Z,19.00
2018-09-06T08:23:25.570Z,18.03
2018-09-06T08:25:54.546Z,19.27
2018-09-06T08:28:23.273Z,17.80
2018-09-06T08:30:52.079Z,19.80
2018-09-06T08:33:20.856Z,17.50
2018-09-06T08:35:49.573Z,18.60
2018-09-06T08:38:18.393Z,19.90
2018-09-06T08:40:47.137Z,19.00
2018-09-06T08:43:15.897Z,18.90
2018-09-06T08:45:44.744Z,16.90
2018-09-06T08:48:13.643Z,16.10
2018-09-06T08:50:42.537Z,16.37
2018-09-06T08:53:11.268Z,17.10
2018-09-06T08:55:39.999Z,16.57
2018-09-06T08:58:08.831Z,15.70
2018-09-06T09:00:40.937Z,18.10
2018-09-06T09:03:10.999Z,13.63
2018-09-06T09:05:39.742Z,17.37
2018-09-06T09:08:08.438Z,14.00
2018-09-06T09:10:37.242Z,13.60
2018-09-06T09:13:06.292Z,15.03
2018-09-06T09:15:35.051Z,15.20
2018-09-06T09:18:03.784Z,15.10
2018-09-06T09:20:32.685Z,14.40
2018-09-06T09:23:01.606Z,15.53
2018-09-06T09:25:30.409Z,15.87
2018-09-06T09:27:59.278Z,13.10
2018-09-06T09:30:28.192Z,14.10
2018-09-06T09:32:57.275Z,12.00
2018-09-06T09:35:26.095Z,12.40
2018-09-06T09:37:54.886Z,12.57
2018-09-06T09:40:23.633Z,12.50
2018-09-06T09:42:52.330Z,13.47
2018-09-06T09:45:21.220Z,12.30
2018-09-06T09:47:49.999Z,12.33
2018-09-06T09:52:46.785Z,11.80
2018-09-06T09:55:15.465Z,11.50
2018-09-06T09:57:44.314Z,10.33
2018-09-06T10:00:13.050Z,9.93
2018-09-06T10:02:46.933Z,10.33
2018-09-06T10:05:20.782Z,10.20
2018-09-06T10:07:57.926Z,11.13
2018-09-06T10:10:27.421Z,10.57
2018-09-06T10:12:56.221Z,10.40
2018-09-06T10:15:25.002Z,10.30
2018-09-06T10:18:00.598Z,8.97
2018-09-06T10:20:29.729Z,9.90
2018-09-06T10:22:58.500Z,9.47
2018-09-06T10:25:27.395Z,9.93
2018-09-06T10:27:56.202Z,8.33
2018-09-06T10:30:25.129Z,8.00
2018-09-06T10:32:53.957Z,10.10
2018-09-06T10:35:22.812Z,10.40
2018-09-06T10:37:51.495Z,9.00
2018-09-06T10:40:20.210Z,9.20
2018-09-06T10:42:49.006Z,9.10
2018-09-06T10:45:17.736Z,8.70
2018-09-06T10:47:46.514Z,8.43
2018-09-06T10:50:15.318Z,9.63
2018-09-06T10:52:44.250Z,8.57
2018-09-06T10:55:13.110Z,8.80
2018-09-06T10:57:41.814Z,8.70
2018-09-06T11:00:10.663Z,8.80
2018-09-06T11:02:39.506Z,8.70
2018-09-06T11:05:08.378Z,8.87
2018-09-06T11:07:37.107Z,8.17
2018-09-06T11:10:06.019Z,8.33
2018-09-06T11:12:35.000Z,7.83
2018-09-06T11:15:03.727Z,7.63
2018-09-06T11:17:32.750Z,9.20
2018-09-06T11:20:01.570Z,7.60
2018-09-06T11:22:30.461Z,8.80
2018-09-06T11:24:59.200Z,9.07
2018-09-06T11:27:28.499Z,9.03
2018-09-06T11:29:57.038Z,8.77
2018-09-06T11:32:25.967Z,7.80
2018-09-06T11:34:55.355Z,8.30
2018-09-06T11:37:24.065Z,8.23
2018-09-06T11:39:52.928Z,7.90
2018-09-06T11:42:21.596Z,6.93
2018-09-06T11:44:50.727Z,6.90
2018-09-06T11:47:19.487Z,7.90
2018-09-06T11:49:48.285Z,7.30
2018-09-06T11:52:17.094Z,7.83
2018-09-06T11:54:45.869Z,7.60
2018-09-06T11:57:15.086Z,6.60
2018-09-06T11:59:43.983Z,7.93
2018-09-06T12:02:12.693Z,7.50
2018-09-06T12:04:41.610Z,7.17
2018-09-06T12:07:10.313Z,7.47
2018-09-06T12:09:40.879Z,7.57
2018-09-06T12:12:09.631Z,7.80
2018-09-06T12:14:38.303Z,7.50
2018-09-06T12:17:07.181Z,7.00
2018-09-06T12:19:36.029Z,6.80
2018-09-06T12:22:04.829Z,6.13
2018-09-06T12:24:33.614Z,7.30
2018-09-06T12:27:02.336Z,7.00
2018-09-06T12:29:31.394Z,7.73
2018-09-06T12:32:00.482Z,6.70
2018-09-06T12:34:29.475Z,6.10
2018-09-06T12:36:58.175Z,7.13
2018-09-06T12:39:26.976Z,7.13
2018-09-06T12:41:55.793Z,7.40
2018-09-06T12:44:24.658Z,7.73
2018-09-06T12:46:53.628Z,8.70
2018-09-06T12:49:22.737Z,6.73
2018-09-06T12:51:51.478Z,6.53
2018-09-06T12:54:20.184Z,6.03
2018-09-06T12:56:48.863Z,5.90
2018-09-06T12:59:17.638Z,5.57
2018-09-06T13:01:46.412Z,6.43
2018-09-06T13:04:15.121Z,5.80
2018-09-06T13:06:43.844Z,6.70
2018-09-06T13:09:12.586Z,7.03
2018-09-06T13:11:41.317Z,6.10
2018-09-06T13:14:10.193Z,6.33
2018-09-06T13:16:39.795Z,6.53
2018-09-06T13:19:08.607Z,7.43
2018-09-06T13:21:37.282Z,7.37
2018-09-06T13:24:06.365Z,6.57
2018-09-06T13:26:35.082Z,7.93
2018-09-06T13:29:03.857Z,7.23
2018-09-06T13:31:32.693Z,7.00
2018-09-06T13:34:01.450Z,6.43
2018-09-06T13:36:30.245Z,6.53
2018-09-06T13:38:58.889Z,6.87
2018-09-06T13:41:27.685Z,6.33
2018-09-06T13:43:56.359Z,5.93
2018-09-06T13:46:25.034Z,7.27
2018-09-06T13:48:53.987Z,7.50
2018-09-06T13:51:22.898Z,7.70
2018-09-06T13:53:51.630Z,7.77
2018-09-06T13:56:20.373Z,7.70
2018-09-06T13:58:49.133Z,8.07
2018-09-06T14:01:18.030Z,7.20
2018-09-06T14:03:46.793Z,7.03
2018-09-06T14:06:15.619Z,8.30
2018-09-06T14:08:44.461Z,7.40
2018-09-06T14:11:13.144Z,6.97
2018-09-06T14:13:42.069Z,7.43
2018-09-06T14:16:10.851Z,8.20
2018-09-06T14:18:39.546Z,8.47
2018-09-06T14:21:08.313Z,7.43
2018-09-06T14:23:36.983Z,6.93
2018-09-06T14:26:05.720Z,8.07
2018-09-06T14:28:34.641Z,8.20
2018-09-06T14:31:03.490Z,7.83
2018-09-06T14:33:32.202Z,7.10
2018-09-06T14:36:00.862Z,7.67
2018-09-06T14:38:29.641Z,7.03
2018-09-06T14:40:58.430Z,7.47
2018-09-06T14:43:27.428Z,8.73
2018-09-06T14:45:56.100Z,7.20
2018-09-06T14:48:24.842Z,8.07
2018-09-06T14:50:53.592Z,7.90
2018-09-06T14:53:22.361Z,7.40
2018-09-06T14:55:51.269Z,7.40
2018-09-06T14:58:19.961Z,6.50
2018-09-06T15:00:48.848Z,7.60
2018-09-06T15:03:17.624Z,7.27
2018-09-06T15:05:46.284Z,6.60
2018-09-06T15:08:14.997Z,6.83
2018-09-06T15:10:43.732Z,8.40
2018-09-06T15:13:12.462Z,8.37
2018-09-06T15:15:41.279Z,6.50
2018-09-06T15:18:10.035Z,5.10
2018-09-06T15:20:38.802Z,6.63
2018-09-06T15:23:07.531Z,7.03
2018-09-06T15:25:36.311Z,8.13
2018-09-06T15:28:04.991Z,7.80
2018-09-06T15:30:33.762Z,6.87
2018-09-06T15:33:02.613Z,7.80
2018-09-06T15:35:31.333Z,7.53
2018-09-06T15:38:00.782Z,7.93
2018-09-06T15:40:29.730Z,7.30
2018-09-06T15:42:58.523Z,7.73
2018-09-06T15:45:27.382Z,7.90
2018-09-06T15:47:56.358Z,8.93
2018-09-06T15:50:25.114Z,8.97
2018-09-06T15:52:54.021Z,7.70
2018-09-06T15:55:22.778Z,8.10
2018-09-06T15:57:51.466Z,6.50
2018-09-06T16:00:20.391Z,8.30
2018-09-06T16:02:49.110Z,7.60
2018-09-06T16:05:17.979Z,7.37
2018-09-06T16:07:46.666Z,7.13
2018-09-06T16:10:15.419Z,8.43
2018-09-06T16:12:44.135Z,6.90
2018-09-06T16:15:13.037Z,7.20
2018-09-06T16:17:41.756Z,7.80
2018-09-06T16:20:10.465Z,8.00
2018-09-06T16:22:39.480Z,7.10
2018-09-06T16:25:08.182Z,7.13
2018-09-06T16:27:36.952Z,8.37
2018-09-06T16:30:06.244Z,7.90
2018-09-06T16:32:34.969Z,8.63
2018-09-06T16:35:03.664Z,7.77
2018-09-06T16:37:32.365Z,7.73
2018-09-06T16:40:01.149Z,8.00
2018-09-06T16:42:29.831Z,8.10
2018-09-06T16:44:58.866Z,7.20
2018-09-06T16:47:27.560Z,8.20
2018-09-06T16:49:56.215Z,7.70
2018-09-06T16:52:24.945Z,7.70
2018-09-06T16:54:53.918Z,7.77
2018-09-06T16:57:22.672Z,8.23
2018-09-06T16:59:51.453Z,8.40
2018-09-06T17:02:20.295Z,8.03
2018-09-06T17:04:49.054Z,7.80
2018-09-06T17:07:17.831Z,8.13
2018-09-06T17:09:46.627Z,9.13
2018-09-06T17:12:15.262Z,8.90
2018-09-06T17:14:43.946Z,7.37
2018-09-06T17:17:12.584Z,7.30
2018-09-06T17:19:41.345Z,9.63
2018-09-06T17:22:10.405Z,8.10
2018-09-06T17:24:39.127Z,9.60
2018-09-06T17:27:07.890Z,8.33
2018-09-06T17:29:36.575Z,8.10
2018-09-06T17:32:05.270Z,7.90
2018-09-06T17:34:33.913Z,9.80
2018-09-06T17:37:02.643Z,9.80
2018-09-06T17:39:31.388Z,9.57
2018-09-06T17:42:00.117Z,9.40
2018-09-06T17:44:28.813Z,8.20
2018-09-06T17:46:57.511Z,11.00
2018-09-06T17:49:26.250Z,9.10
2018-09-06T17:51:54.956Z,10.30
2018-09-06T17:54:23.624Z,9.13
2018-09-06T17:56:52.468Z,12.00
2018-09-06T17:59:21.222Z,12.10
2018-09-06T18:01:50.074Z,12.20
2018-09-06T18:04:18.789Z,11.40
2018-09-06T18:06:47.557Z,9.70
2018-09-06T18:11:58.308Z,10.63
2018-09-06T18:14:27.173Z,9.20
2018-09-06T18:16:56.184Z,8.90
2018-09-06T18:19:24.903Z,9.10
2018-09-06T18:21:53.633Z,10.20
2018-09-06T18:24:22.452Z,10.60
2018-09-06T18:26:51.258Z,11.90
2018-09-06T18:29:20.018Z,11.07
2018-09-06T18:31:48.807Z,10.63
2018-09-06T18:34:17.558Z,11.40
2018-09-06T18:36:46.391Z,10.00
2018-09-06T18:39:15.198Z,11.20
2018-09-06T18:41:43.941Z,10.27
2018-09-06T18:44:12.710Z,9.13
2018-09-06T18:46:41.416Z,10.90
2018-09-06T18:49:10.237Z,9.87
2018-09-06T18:51:39.028Z,9.50
2018-09-06T18:54:07.734Z,10.63
2018-09-06T18:56:36.515Z,11.00
2018-09-06T18:59:05.567Z,10.10
2018-09-06T19:01:34.586Z,9.80
2018-09-06T19:04:03.259Z,10.30
2018-09-06T19:06:31.928Z,11.43
2018-09-06T19:09:00.738Z,12.73
2018-09-06T19:11:29.369Z,10.90
2018-09-06T19:13:58.234Z,11.90
2018-09-06T19:16:26.950Z,10.27
2018-09-06T19:18:55.875Z,10.73
2018-09-06T19:21:24.579Z,9.57
2018-09-06T19:23:53.561Z,12.00
2018-09-06T19:26:22.556Z,10.30
2018-09-06T19:28:51.196Z,10.40
2018-09-06T19:31:19.938Z,11.00
2018-09-06T19:33:48.737Z,10.53
2018-09-06T19:36:17.507Z,12.20
2018-09-06T19:38:46.326Z,10.90
2018-09-06T19:41:15.043Z,11.30
2018-09-06T19:43:43.715Z,11.57
2018-09-06T19:46:12.433Z,12.90
2018-09-06T19:48:41.252Z,13.07
2018-09-06T19:51:10.262Z,11.40
2018-09-06T19:53:39.118Z,11.10
2018-09-06T19:56:07.900Z,12.80
2018-09-06T19:58:36.621Z,12.30
2018-09-06T20:01:05.390Z,11.80
2018-09-06T20:03:35.139Z,12.10
2018-09-06T20:06:03.907Z,11.37
2018-09-06T20:08:32.693Z,11.77
2018-09-06T20:11:01.590Z,12.10
2018-09-06T20:13:30.264Z,12.60
2018-09-06T20:15:59.695Z,11.70
2018-09-06T20:18:28.551Z,12.20
2018-09-06T20:20:57.261Z,12.50
2018-09-06T20:23:26.086Z,12.83
2018-09-06T20:25:54.996Z,11.77
2018-09-06T20:28:23.898Z,12.70
2018-09-06T20:30:52.625Z,12.47
2018-09-06T20:33:21.379Z,11.97
2018-09-06T20:35:50.315Z,11.23
2018-09-06T20:38:19.003Z,10.00
2018-09-06T20:40:47.895Z,11.70
2018-09-06T20:43:16.667Z,11.00
2018-09-06T20:45:45.571Z,11.53
2018-09-06T20:48:15.318Z,10.10
2018-09-06T20:50:44.028Z,10.63
2018-09-06T20:53:13.125Z,11.00
2018-09-06T20:55:41.822Z,12.50
2018-09-06T20:58:10.525Z,10.10
2018-09-06T21:00:39.337Z,9.90
2018-09-06T21:03:08.149Z,9.77
2018-09-06T21:05:36.880Z,11.03
2018-09-06T21:08:05.590Z,8.90
2018-09-06T21:10:34.365Z,9.23
2018-09-06T21:13:03.165Z,9.07
2018-09-06T21:15:32.077Z,10.07
2018-09-06T21:18:00.984Z,10.70
2018-09-06T21:20:29.714Z,10.50
2018-09-06T21:22:58.743Z,8.53
2018-09-06T21:25:27.454Z,8.67
2018-09-06T21:27:56.542Z,10.30
2018-09-06T21:30:25.321Z,9.27
2018-09-06T21:32:54.024Z,9.37
2018-09-06T21:35:22.754Z,9.37
2018-09-06T21:37:51.600Z,10.17
2018-09-06T21:40:20.397Z,9.50
2018-09-06T21:42:49.329Z,9.03
2018-09-06T21:45:18.246Z,10.20
2018-09-06T21:47:47.103Z,10.10
2018-09-06T21:50:16.130Z,9.00
2018-09-06T21:52:44.867Z,9.63
2018-09-06T21:55:13.574Z,9.77
2018-09-06T21:57:42.355Z,8.83
2018-09-06T22:00:11.417Z,10.13
2018-09-06T22:02:45.724Z,12.13
2018-09-06T22:05:14.473Z,12.57
2018-09-06T22:07:43.224Z,10.47
2018-09-06T22:10:12.792Z,10.67
2018-09-06T22:12:41.655Z,12.80
2018-09-06T22:15:10.468Z,10.73
2018-09-06T22:17:39.234Z,10.63
2018-09-06T22:20:07.985Z,9.70
2018-09-06T22:22:36.714Z,11.50
2018-09-06T22:25:05.607Z,12.93
2018-09-06T22:27:34.313Z,10.03
2018-09-06T22:30:03.299Z,10.80
2018-09-06T22:32:32.186Z,12.60
2018-09-06T22:35:00.962Z,12.50
2018-09-06T22:37:29.738Z,11.53
2018-09-06T22:39:58.557Z,11.27
2018-09-06T22:42:27.229Z,11.50
2018-09-06T22:44:55.884Z,11.90
2018-09-06T22:47:24.731Z,12.43
2018-09-06T22:49:53.502Z,13.07
2018-09-06T22:52:22.488Z,12.33
2018-09-06T22:54:51.146Z,13.43
2018-09-06T22:57:19.954Z,12.20
2018-09-06T22:59:48.666Z,14.80
2018-09-06T23:02:17.776Z,13.10
2018-09-06T23:04:46.634Z,13.53
2018-09-06T23:07:15.475Z,11.20
2018-09-06T23:09:44.202Z,12.27
2018-09-06T23:12:13.028Z,13.67
2018-09-06T23:14:41.730Z,12.63
2018-09-06T23:17:10.464Z,14.40
2018-09-06T23:19:39.289Z,14.10
2018-09-06T23:22:08.043Z,14.83
2018-09-06T23:24:37.075Z,15.93
2018-09-06T23:27:05.918Z,13.70
2018-09-06T23:29:34.616Z,13.27
2018-09-06T23:32:03.847Z,14.13
2018-09-06T23:34:35.677Z,13.67
2018-09-06T23:37:05.642Z,13.93
2018-09-06T23:39:35.001Z,13.17
2018-09-06T23:42:04.035Z,11.80
2018-09-06T23:44:32.783Z,12.60
2018-09-06T23:47:01.736Z,12.00
2018-09-06T23:49:31.160Z,12.27
2018-09-06T23:52:00.324Z,10.70
2018-09-06T23:54:30.122Z,11.57
2018-09-06T23:56:58.809Z,10.10
2018-09-06T23:59:27.584Z,11.43
